sensor_id;sensor_type;location;lat;lon;timestamp;P1;durP1;ratioP1;P2;durP2;ratioP2
83688;SDS011;74527;43.224;0.108;2024-02-15T00:01:01;24.38;;;12.68;;
83688;SDS011;74527;43.224;0.108;2024-02-15T00:03:29;21.95;;;11.75;;
83688;SDS011;74527;43.224;0.108;2024-02-15T00:05:56;21.60;;;12.90;;
83688;SDS011;74527;43.224;0.108;2024-02-15T00:08:22;21.27;;;11.38;;
83688;SDS011;74527;43.224;0.108;2024-02-15T00:10:49;20.75;;;11.63;;
83688;SDS011;74527;43.224;0.108;2024-02-15T00:13:15;22.70;;;12.45;;
83688;SDS011;74527;43.224;0.108;2024-02-15T00:15:41;28.38;;;13.00;;
83688;SDS011;74527;43.224;0.108;2024-02-15T00:18:08;26.35;;;13.90;;
83688;SDS011;74527;43.224;0.108;2024-02-15T00:20:34;19.85;;;11.65;;
83688;SDS011;74527;43.224;0.108;2024-02-15T00:23:00;19.98;;;10.90;;
83688;SDS011;74527;43.224;0.108;2024-02-15T00:25:26;18.88;;;10.35;;
83688;SDS011;74527;43.224;0.108;2024-02-15T00:27:52;21.50;;;10.35;;
83688;SDS011;74527;43.224;0.108;2024-02-15T00:30:18;32.30;;;12.05;;
83688;SDS011;74527;43.224;0.108;2024-02-15T00:32:44;19.92;;;10.90;;
83688;SDS011;74527;43.224;0.108;2024-02-15T00:35:11;25.88;;;10.55;;
83688;SDS011;74527;43.224;0.108;2024-02-15T00:37:38;20.60;;;10.45;;
83688;SDS011;74527;43.224;0.108;2024-02-15T00:40:04;21.20;;;9.35;;
83688;SDS011;74527;43.224;0.108;2024-02-15T00:42:30;16.83;;;8.35;;
83688;SDS011;74527;43.224;0.108;2024-02-15T00:44:57;16.15;;;8.23;;
83688;SDS011;74527;43.224;0.108;2024-02-15T00:47:23;19.13;;;8.95;;
83688;SDS011;74527;43.224;0.108;2024-02-15T00:49:49;19.45;;;9.77;;
83688;SDS011;74527;43.224;0.108;2024-02-15T00:52:18;15.10;;;8.75;;
83688;SDS011;74527;43.224;0.108;2024-02-15T00:54:44;17.08;;;8.27;;
83688;SDS011;74527;43.224;0.108;2024-02-15T00:57:10;16.38;;;7.60;;
83688;SDS011;74527;43.224;0.108;2024-02-15T00:59:36;12.80;;;7.18;;
83688;SDS011;74527;43.224;0.108;2024-02-15T01:02:02;13.35;;;6.97;;
83688;SDS011;74527;43.224;0.108;2024-02-15T01:04:30;12.13;;;6.77;;
83688;SDS011;74527;43.224;0.108;2024-02-15T01:06:56;13.93;;;6.50;;
83688;SDS011;74527;43.224;0.108;2024-02-15T01:09:22;13.57;;;7.18;;
83688;SDS011;74527;43.224;0.108;2024-02-15T01:11:48;13.20;;;6.55;;
83688;SDS011;74527;43.224;0.108;2024-02-15T01:14:14;12.35;;;6.65;;
83688;SDS011;74527;43.224;0.108;2024-02-15T01:16:44;9.75;;;5.30;;
83688;SDS011;74527;43.224;0.108;2024-02-15T01:19:10;10.02;;;5.65;;
83688;SDS011;74527;43.224;0.108;2024-02-15T01:21:36;12.35;;;6.80;;
83688;SDS011;74527;43.224;0.108;2024-02-15T01:24:02;13.90;;;6.30;;
83688;SDS011;74527;43.224;0.108;2024-02-15T01:26:29;16.17;;;6.90;;
83688;SDS011;74527;43.224;0.108;2024-02-15T01:28:55;9.93;;;5.75;;
83688;SDS011;74527;43.224;0.108;2024-02-15T01:31:21;12.68;;;6.15;;
83688;SDS011;74527;43.224;0.108;2024-02-15T01:33:47;12.18;;;6.15;;
83688;SDS011;74527;43.224;0.108;2024-02-15T01:36:14;9.52;;;5.63;;
83688;SDS011;74527;43.224;0.108;2024-02-15T01:38:40;13.77;;;5.43;;
83688;SDS011;74527;43.224;0.108;2024-02-15T01:41:07;12.85;;;5.43;;
83688;SDS011;74527;43.224;0.108;2024-02-15T01:43:33;13.40;;;6.15;;
83688;SDS011;74527;43.224;0.108;2024-02-15T01:45:59;14.73;;;7.15;;
83688;SDS011;74527;43.224;0.108;2024-02-15T01:48:29;11.73;;;6.22;;
83688;SDS011;74527;43.224;0.108;2024-02-15T01:50:56;11.82;;;6.10;;
83688;SDS011;74527;43.224;0.108;2024-02-15T01:53:23;14.10;;;6.53;;
83688;SDS011;74527;43.224;0.108;2024-02-15T01:55:49;12.63;;;6.97;;
83688;SDS011;74527;43.224;0.108;2024-02-15T01:58:16;16.48;;;5.63;;
83688;SDS011;74527;43.224;0.108;2024-02-15T02:00:43;16.15;;;5.95;;
83688;SDS011;74527;43.224;0.108;2024-02-15T02:03:09;11.88;;;5.95;;
83688;SDS011;74527;43.224;0.108;2024-02-15T02:05:36;14.55;;;6.80;;
83688;SDS011;74527;43.224;0.108;2024-02-15T02:08:02;11.32;;;6.30;;
83688;SDS011;74527;43.224;0.108;2024-02-15T02:10:34;9.80;;;5.22;;
83688;SDS011;74527;43.224;0.108;2024-02-15T02:13:00;8.75;;;4.93;;
83688;SDS011;74527;43.224;0.108;2024-02-15T02:15:27;7.75;;;4.97;;
83688;SDS011;74527;43.224;0.108;2024-02-15T02:17:56;12.75;;;5.72;;
83688;SDS011;74527;43.224;0.108;2024-02-15T02:20:23;9.95;;;5.50;;
83688;SDS011;74527;43.224;0.108;2024-02-15T02:22:50;12.40;;;5.30;;
83688;SDS011;74527;43.224;0.108;2024-02-15T02:25:16;14.38;;;4.97;;
83688;SDS011;74527;43.224;0.108;2024-02-15T02:27:43;13.43;;;5.50;;
83688;SDS011;74527;43.224;0.108;2024-02-15T02:30:16;11.15;;;5.25;;
83688;SDS011;74527;43.224;0.108;2024-02-15T02:32:44;13.52;;;5.43;;
83688;SDS011;74527;43.224;0.108;2024-02-15T02:35:10;14.63;;;5.43;;
83688;SDS011;74527;43.224;0.108;2024-02-15T02:37:40;14.98;;;5.60;;
83688;SDS011;74527;43.224;0.108;2024-02-15T02:40:06;11.90;;;5.25;;
83688;SDS011;74527;43.224;0.108;2024-02-15T02:42:34;11.32;;;6.55;;
83688;SDS011;74527;43.224;0.108;2024-02-15T02:45:00;13.40;;;5.00;;
83688;SDS011;74527;43.224;0.108;2024-02-15T02:47:26;10.45;;;4.70;;
83688;SDS011;74527;43.224;0.108;2024-02-15T02:49:53;14.50;;;4.47;;
83688;SDS011;74527;43.224;0.108;2024-02-15T02:52:19;8.30;;;4.72;;
83688;SDS011;74527;43.224;0.108;2024-02-15T02:54:45;11.38;;;4.32;;
83688;SDS011;74527;43.224;0.108;2024-02-15T02:57:11;11.18;;;4.65;;
83688;SDS011;74527;43.224;0.108;2024-02-15T02:59:37;9.65;;;4.30;;
83688;SDS011;74527;43.224;0.108;2024-02-15T03:02:04;10.67;;;4.27;;
83688;SDS011;74527;43.224;0.108;2024-02-15T03:04:33;11.02;;;4.35;;
83688;SDS011;74527;43.224;0.108;2024-02-15T03:06:59;10.80;;;4.72;;
83688;SDS011;74527;43.224;0.108;2024-02-15T03:09:25;10.90;;;4.53;;
83688;SDS011;74527;43.224;0.108;2024-02-15T03:11:54;10.23;;;4.65;;
83688;SDS011;74527;43.224;0.108;2024-02-15T03:14:21;17.77;;;5.57;;
83688;SDS011;74527;43.224;0.108;2024-02-15T03:16:47;12.63;;;4.97;;
83688;SDS011;74527;43.224;0.108;2024-02-15T03:19:14;10.32;;;4.72;;
83688;SDS011;74527;43.224;0.108;2024-02-15T03:21:40;10.43;;;4.85;;
83688;SDS011;74527;43.224;0.108;2024-02-15T03:24:11;11.75;;;4.65;;
83688;SDS011;74527;43.224;0.108;2024-02-15T03:26:38;9.82;;;5.15;;
83688;SDS011;74527;43.224;0.108;2024-02-15T03:29:05;8.70;;;4.85;;
83688;SDS011;74527;43.224;0.108;2024-02-15T03:31:32;13.80;;;5.13;;
83688;SDS011;74527;43.224;0.108;2024-02-15T03:34:02;12.35;;;5.32;;
83688;SDS011;74527;43.224;0.108;2024-02-15T03:36:28;9.45;;;4.93;;
83688;SDS011;74527;43.224;0.108;2024-02-15T03:38:54;12.43;;;5.78;;
83688;SDS011;74527;43.224;0.108;2024-02-15T03:41:21;10.57;;;4.85;;
83688;SDS011;74527;43.224;0.108;2024-02-15T03:43:47;10.80;;;5.03;;
83688;SDS011;74527;43.224;0.108;2024-02-15T03:46:13;9.73;;;4.18;;
83688;SDS011;74527;43.224;0.108;2024-02-15T03:48:42;12.15;;;4.72;;
83688;SDS011;74527;43.224;0.108;2024-02-15T03:51:15;7.88;;;4.22;;
83688;SDS011;74527;43.224;0.108;2024-02-15T03:53:42;9.63;;;4.63;;
83688;SDS011;74527;43.224;0.108;2024-02-15T03:56:08;7.82;;;4.72;;
83688;SDS011;74527;43.224;0.108;2024-02-15T03:58:34;7.32;;;4.10;;
83688;SDS011;74527;43.224;0.108;2024-02-15T04:01:01;7.78;;;4.60;;
83688;SDS011;74527;43.224;0.108;2024-02-15T04:03:31;6.03;;;4.10;;
83688;SDS011;74527;43.224;0.108;2024-02-15T04:05:59;9.48;;;3.95;;
83688;SDS011;74527;43.224;0.108;2024-02-15T04:08:25;9.60;;;4.20;;
83688;SDS011;74527;43.224;0.108;2024-02-15T04:10:51;10.10;;;4.25;;
83688;SDS011;74527;43.224;0.108;2024-02-15T04:13:18;7.65;;;3.80;;
83688;SDS011;74527;43.224;0.108;2024-02-15T04:15:44;6.20;;;3.90;;
83688;SDS011;74527;43.224;0.108;2024-02-15T04:18:12;9.67;;;4.37;;
83688;SDS011;74527;43.224;0.108;2024-02-15T04:20:39;7.20;;;4.00;;
83688;SDS011;74527;43.224;0.108;2024-02-15T04:23:10;7.75;;;4.07;;
83688;SDS011;74527;43.224;0.108;2024-02-15T04:25:36;11.55;;;4.65;;
83688;SDS011;74527;43.224;0.108;2024-02-15T04:28:02;14.43;;;5.10;;
83688;SDS011;74527;43.224;0.108;2024-02-15T04:30:29;11.30;;;4.68;;
83688;SDS011;74527;43.224;0.108;2024-02-15T04:32:55;13.00;;;5.63;;
83688;SDS011;74527;43.224;0.108;2024-02-15T04:35:22;13.27;;;5.00;;
83688;SDS011;74527;43.224;0.108;2024-02-15T04:37:48;11.40;;;4.68;;
83688;SDS011;74527;43.224;0.108;2024-02-15T04:40:14;16.38;;;5.47;;
83688;SDS011;74527;43.224;0.108;2024-02-15T04:42:43;13.52;;;5.13;;
83688;SDS011;74527;43.224;0.108;2024-02-15T04:45:12;8.75;;;5.07;;
83688;SDS011;74527;43.224;0.108;2024-02-15T04:47:40;9.82;;;4.70;;
83688;SDS011;74527;43.224;0.108;2024-02-15T04:50:06;13.55;;;5.07;;
83688;SDS011;74527;43.224;0.108;2024-02-15T04:52:32;13.27;;;6.30;;
83688;SDS011;74527;43.224;0.108;2024-02-15T04:54:59;9.82;;;5.25;;
83688;SDS011;74527;43.224;0.108;2024-02-15T04:57:25;12.27;;;5.72;;
83688;SDS011;74527;43.224;0.108;2024-02-15T04:59:53;11.90;;;6.32;;
83688;SDS011;74527;43.224;0.108;2024-02-15T05:02:19;10.60;;;5.43;;
83688;SDS011;74527;43.224;0.108;2024-02-15T05:04:47;9.07;;;5.13;;
83688;SDS011;74527;43.224;0.108;2024-02-15T05:07:13;11.55;;;5.72;;
83688;SDS011;74527;43.224;0.108;2024-02-15T05:09:42;23.95;;;6.45;;
83688;SDS011;74527;43.224;0.108;2024-02-15T05:12:08;14.95;;;5.45;;
83688;SDS011;74527;43.224;0.108;2024-02-15T05:14:34;9.52;;;5.90;;
83688;SDS011;74527;43.224;0.108;2024-02-15T05:17:02;13.68;;;6.40;;
83688;SDS011;74527;43.224;0.108;2024-02-15T05:19:28;14.77;;;5.80;;
83688;SDS011;74527;43.224;0.108;2024-02-15T05:24:22;13.77;;;6.32;;
83688;SDS011;74527;43.224;0.108;2024-02-15T05:26:48;23.08;;;5.93;;
83688;SDS011;74527;43.224;0.108;2024-02-15T05:29:15;15.60;;;6.20;;
83688;SDS011;74527;43.224;0.108;2024-02-15T05:31:41;8.95;;;5.47;;
83688;SDS011;74527;43.224;0.108;2024-02-15T05:34:07;12.45;;;6.28;;
83688;SDS011;74527;43.224;0.108;2024-02-15T05:39:03;12.70;;;5.35;;
83688;SDS011;74527;43.224;0.108;2024-02-15T05:41:29;13.10;;;5.53;;
83688;SDS011;74527;43.224;0.108;2024-02-15T05:43:57;17.35;;;6.07;;
83688;SDS011;74527;43.224;0.108;2024-02-15T05:46:24;9.68;;;4.70;;
83688;SDS011;74527;43.224;0.108;2024-02-15T05:48:50;9.18;;;4.95;;
83688;SDS011;74527;43.224;0.108;2024-02-15T05:51:16;12.80;;;4.53;;
83688;SDS011;74527;43.224;0.108;2024-02-15T05:53:43;11.32;;;5.00;;
83688;SDS011;74527;43.224;0.108;2024-02-15T05:56:09;10.35;;;4.95;;
83688;SDS011;74527;43.224;0.108;2024-02-15T05:58:36;12.40;;;6.22;;
83688;SDS011;74527;43.224;0.108;2024-02-15T06:01:03;20.70;;;6.57;;
83688;SDS011;74527;43.224;0.108;2024-02-15T06:03:37;14.13;;;6.88;;
83688;SDS011;74527;43.224;0.108;2024-02-15T06:08:34;28.10;;;6.57;;
83688;SDS011;74527;43.224;0.108;2024-02-15T06:11:00;17.13;;;6.50;;
83688;SDS011;74527;43.224;0.108;2024-02-15T06:13:26;20.15;;;6.97;;
83688;SDS011;74527;43.224;0.108;2024-02-15T06:15:53;17.90;;;7.55;;
83688;SDS011;74527;43.224;0.108;2024-02-15T06:18:19;17.73;;;7.65;;
83688;SDS011;74527;43.224;0.108;2024-02-15T06:20:53;17.33;;;6.15;;
83688;SDS011;74527;43.224;0.108;2024-02-15T06:23:22;19.55;;;6.45;;
83688;SDS011;74527;43.224;0.108;2024-02-15T06:25:48;16.70;;;6.43;;
83688;SDS011;74527;43.224;0.108;2024-02-15T06:28:16;23.38;;;7.80;;
83688;SDS011;74527;43.224;0.108;2024-02-15T06:31:01;15.82;;;6.47;;
83688;SDS011;74527;43.224;0.108;2024-02-15T06:33:45;14.65;;;6.43;;
83688;SDS011;74527;43.224;0.108;2024-02-15T06:36:30;15.55;;;6.25;;
83688;SDS011;74527;43.224;0.108;2024-02-15T06:39:15;19.75;;;7.07;;
83688;SDS011;74527;43.224;0.108;2024-02-15T06:42:00;18.92;;;6.88;;
83688;SDS011;74527;43.224;0.108;2024-02-15T06:44:27;18.42;;;6.00;;
83688;SDS011;74527;43.224;0.108;2024-02-15T06:46:53;13.95;;;6.25;;
83688;SDS011;74527;43.224;0.108;2024-02-15T06:49:19;16.63;;;6.55;;
83688;SDS011;74527;43.224;0.108;2024-02-15T06:51:48;19.02;;;6.50;;
83688;SDS011;74527;43.224;0.108;2024-02-15T06:54:14;11.00;;;5.55;;
83688;SDS011;74527;43.224;0.108;2024-02-15T06:56:41;13.68;;;6.43;;
83688;SDS011;74527;43.224;0.108;2024-02-15T06:59:08;14.27;;;6.20;;
83688;SDS011;74527;43.224;0.108;2024-02-15T07:01:35;27.30;;;6.68;;
83688;SDS011;74527;43.224;0.108;2024-02-15T07:04:03;12.30;;;5.93;;
83688;SDS011;74527;43.224;0.108;2024-02-15T07:06:29;19.90;;;5.72;;
83688;SDS011;74527;43.224;0.108;2024-02-15T07:08:56;16.63;;;5.30;;
83688;SDS011;74527;43.224;0.108;2024-02-15T07:11:23;9.00;;;4.97;;
83688;SDS011;74527;43.224;0.108;2024-02-15T07:13:49;17.33;;;4.80;;
83688;SDS011;74527;43.224;0.108;2024-02-15T07:16:18;17.02;;;5.60;;
83688;SDS011;74527;43.224;0.108;2024-02-15T07:18:44;15.13;;;5.93;;
83688;SDS011;74527;43.224;0.108;2024-02-15T07:21:11;11.68;;;5.93;;
83688;SDS011;74527;43.224;0.108;2024-02-15T07:23:39;20.88;;;7.00;;
83688;SDS011;74527;43.224;0.108;2024-02-15T07:26:06;12.77;;;5.05;;
83688;SDS011;74527;43.224;0.108;2024-02-15T07:28:33;18.63;;;4.38;;
83688;SDS011;74527;43.224;0.108;2024-02-15T07:30:59;12.98;;;4.10;;
83688;SDS011;74527;43.224;0.108;2024-02-15T07:33:27;10.65;;;4.15;;
83688;SDS011;74527;43.224;0.108;2024-02-15T07:35:54;9.30;;;3.13;;
83688;SDS011;74527;43.224;0.108;2024-02-15T07:38:21;8.65;;;3.72;;
83688;SDS011;74527;43.224;0.108;2024-02-15T07:40:50;7.47;;;3.58;;
83688;SDS011;74527;43.224;0.108;2024-02-15T07:43:16;13.23;;;3.63;;
83688;SDS011;74527;43.224;0.108;2024-02-15T07:45:43;10.52;;;3.60;;
83688;SDS011;74527;43.224;0.108;2024-02-15T07:48:09;10.93;;;3.05;;
83688;SDS011;74527;43.224;0.108;2024-02-15T07:50:35;11.45;;;2.97;;
83688;SDS011;74527;43.224;0.108;2024-02-15T07:53:03;16.85;;;3.72;;
83688;SDS011;74527;43.224;0.108;2024-02-15T07:55:33;14.50;;;4.75;;
83688;SDS011;74527;43.224;0.108;2024-02-15T07:57:59;8.80;;;5.38;;
83688;SDS011;74527;43.224;0.108;2024-02-15T08:00:25;14.32;;;8.85;;
83688;SDS011;74527;43.224;0.108;2024-02-15T08:02:53;18.30;;;9.98;;
83688;SDS011;74527;43.224;0.108;2024-02-15T08:05:19;14.20;;;8.48;;
83688;SDS011;74527;43.224;0.108;2024-02-15T08:07:45;13.18;;;7.07;;
83688;SDS011;74527;43.224;0.108;2024-02-15T08:10:14;35.15;;;22.95;;
83688;SDS011;74527;43.224;0.108;2024-02-15T08:12:44;17.02;;;9.77;;
83688;SDS011;74527;43.224;0.108;2024-02-15T08:15:11;20.05;;;8.30;;
83688;SDS011;74527;43.224;0.108;2024-02-15T08:17:41;25.35;;;7.53;;
83688;SDS011;74527;43.224;0.108;2024-02-15T08:20:08;12.68;;;6.97;;
83688;SDS011;74527;43.224;0.108;2024-02-15T08:22:35;14.48;;;6.10;;
83688;SDS011;74527;43.224;0.108;2024-02-15T08:25:05;15.43;;;5.40;;
83688;SDS011;74527;43.224;0.108;2024-02-15T08:27:31;14.23;;;4.63;;
83688;SDS011;74527;43.224;0.108;2024-02-15T08:29:59;11.27;;;4.55;;
83688;SDS011;74527;43.224;0.108;2024-02-15T08:32:25;7.82;;;3.63;;
83688;SDS011;74527;43.224;0.108;2024-02-15T08:34:51;8.52;;;3.55;;
83688;SDS011;74527;43.224;0.108;2024-02-15T08:37:17;15.75;;;4.03;;
83688;SDS011;74527;43.224;0.108;2024-02-15T08:39:43;7.95;;;3.53;;
83688;SDS011;74527;43.224;0.108;2024-02-15T08:42:09;12.93;;;4.00;;
83688;SDS011;74527;43.224;0.108;2024-02-15T08:44:36;8.20;;;3.30;;
83688;SDS011;74527;43.224;0.108;2024-02-15T08:47:02;8.88;;;3.78;;
83688;SDS011;74527;43.224;0.108;2024-02-15T08:49:30;7.27;;;3.77;;
83688;SDS011;74527;43.224;0.108;2024-02-15T08:51:56;13.63;;;3.70;;
83688;SDS011;74527;43.224;0.108;2024-02-15T08:54:23;13.18;;;4.90;;
83688;SDS011;74527;43.224;0.108;2024-02-15T08:56:51;11.98;;;4.60;;
83688;SDS011;74527;43.224;0.108;2024-02-15T08:59:17;17.73;;;6.85;;
83688;SDS011;74527;43.224;0.108;2024-02-15T09:01:43;20.67;;;8.95;;
83688;SDS011;74527;43.224;0.108;2024-02-15T09:04:11;18.30;;;8.13;;
83688;SDS011;74527;43.224;0.108;2024-02-15T09:06:37;22.13;;;8.32;;
83688;SDS011;74527;43.224;0.108;2024-02-15T09:09:03;19.20;;;7.93;;
83688;SDS011;74527;43.224;0.108;2024-02-15T09:11:31;13.65;;;7.70;;
83688;SDS011;74527;43.224;0.108;2024-02-15T09:16:24;15.50;;;7.55;;
83688;SDS011;74527;43.224;0.108;2024-02-15T09:18:50;11.80;;;7.07;;
83688;SDS011;74527;43.224;0.108;2024-02-15T09:21:18;13.57;;;6.38;;
83688;SDS011;74527;43.224;0.108;2024-02-15T09:23:53;10.75;;;5.10;;
83688;SDS011;74527;43.224;0.108;2024-02-15T09:26:22;7.85;;;5.68;;
83688;SDS011;74527;43.224;0.108;2024-02-15T09:28:53;13.93;;;5.65;;
83688;SDS011;74527;43.224;0.108;2024-02-15T09:31:21;10.88;;;5.68;;
83688;SDS011;74527;43.224;0.108;2024-02-15T09:36:15;13.15;;;4.88;;
83688;SDS011;74527;43.224;0.108;2024-02-15T09:38:41;13.45;;;5.10;;
83688;SDS011;74527;43.224;0.108;2024-02-15T09:41:07;11.00;;;4.95;;
83688;SDS011;74527;43.224;0.108;2024-02-15T09:43:45;11.68;;;5.75;;
83688;SDS011;74527;43.224;0.108;2024-02-15T09:46:13;11.38;;;5.40;;
83688;SDS011;74527;43.224;0.108;2024-02-15T09:48:39;10.65;;;4.10;;
83688;SDS011;74527;43.224;0.108;2024-02-15T09:51:11;14.10;;;4.13;;
83688;SDS011;74527;43.224;0.108;2024-02-15T09:53:39;11.55;;;4.32;;
83688;SDS011;74527;43.224;0.108;2024-02-15T09:56:06;7.03;;;3.92;;
83688;SDS011;74527;43.224;0.108;2024-02-15T09:58:32;8.23;;;4.10;;
83688;SDS011;74527;43.224;0.108;2024-02-15T10:01:02;17.45;;;5.20;;
83688;SDS011;74527;43.224;0.108;2024-02-15T10:03:49;8.98;;;4.63;;
83688;SDS011;74527;43.224;0.108;2024-02-15T10:06:38;6.78;;;4.00;;
83688;SDS011;74527;43.224;0.108;2024-02-15T10:09:29;7.43;;;4.38;;
83688;SDS011;74527;43.224;0.108;2024-02-15T10:12:19;8.77;;;3.72;;
83688;SDS011;74527;43.224;0.108;2024-02-15T10:14:58;11.35;;;4.40;;
83688;SDS011;74527;43.224;0.108;2024-02-15T10:17:24;9.85;;;4.18;;
83688;SDS011;74527;43.224;0.108;2024-02-15T10:20:03;12.43;;;4.45;;
83688;SDS011;74527;43.224;0.108;2024-02-15T10:22:30;11.55;;;4.97;;
83688;SDS011;74527;43.224;0.108;2024-02-15T10:25:11;10.05;;;5.22;;
83688;SDS011;74527;43.224;0.108;2024-02-15T10:27:38;9.63;;;5.15;;
83688;SDS011;74527;43.224;0.108;2024-02-15T10:30:38;13.35;;;4.63;;
83688;SDS011;74527;43.224;0.108;2024-02-15T10:32:59;11.82;;;5.45;;
83688;SDS011;74527;43.224;0.108;2024-02-15T10:35:25;14.00;;;6.03;;
83688;SDS011;74527;43.224;0.108;2024-02-15T10:37:51;14.75;;;5.93;;
83688;SDS011;74527;43.224;0.108;2024-02-15T10:40:18;15.68;;;5.40;;
83688;SDS011;74527;43.224;0.108;2024-02-15T10:42:47;12.23;;;5.15;;
83688;SDS011;74527;43.224;0.108;2024-02-15T10:45:15;19.77;;;6.40;;
83688;SDS011;74527;43.224;0.108;2024-02-15T10:47:43;9.73;;;4.70;;
83688;SDS011;74527;43.224;0.108;2024-02-15T10:50:13;10.20;;;4.35;;
83688;SDS011;74527;43.224;0.108;2024-02-15T10:55:37;9.75;;;3.75;;
83688;SDS011;74527;43.224;0.108;2024-02-15T10:58:29;13.05;;;3.50;;
83688;SDS011;74527;43.224;0.108;2024-02-15T11:01:16;11.50;;;4.68;;
83688;SDS011;74527;43.224;0.108;2024-02-15T11:03:59;9.30;;;3.63;;
83688;SDS011;74527;43.224;0.108;2024-02-15T11:09:33;10.93;;;3.15;;
83688;SDS011;74527;43.224;0.108;2024-02-15T11:12:01;7.70;;;2.58;;
83688;SDS011;74527;43.224;0.108;2024-02-15T11:14:50;10.63;;;2.47;;
83688;SDS011;74527;43.224;0.108;2024-02-15T11:22:44;5.95;;;2.13;;
83688;SDS011;74527;43.224;0.108;2024-02-15T11:25:32;4.30;;;2.28;;
83688;SDS011;74527;43.224;0.108;2024-02-15T11:30:54;4.57;;;2.30;;
83688;SDS011;74527;43.224;0.108;2024-02-15T11:33:43;5.80;;;2.75;;
83688;SDS011;74527;43.224;0.108;2024-02-15T11:36:10;9.68;;;3.03;;
83688;SDS011;74527;43.224;0.108;2024-02-15T11:38:40;5.32;;;3.10;;
83688;SDS011;74527;43.224;0.108;2024-02-15T11:41:08;8.85;;;2.92;;
83688;SDS011;74527;43.224;0.108;2024-02-15T11:46:41;10.70;;;5.05;;
83688;SDS011;74527;43.224;0.108;2024-02-15T11:49:35;8.98;;;3.30;;
83688;SDS011;74527;43.224;0.108;2024-02-15T11:52:13;13.00;;;3.35;;
83688;SDS011;74527;43.224;0.108;2024-02-15T11:54:39;13.50;;;3.25;;
83688;SDS011;74527;43.224;0.108;2024-02-15T11:57:08;10.15;;;4.13;;
83688;SDS011;74527;43.224;0.108;2024-02-15T11:59:44;5.95;;;3.08;;
83688;SDS011;74527;43.224;0.108;2024-02-15T12:02:42;9.07;;;3.53;;
83688;SDS011;74527;43.224;0.108;2024-02-15T12:05:26;9.00;;;3.47;;
83688;SDS011;74527;43.224;0.108;2024-02-15T12:08:11;11.15;;;3.55;;
83688;SDS011;74527;43.224;0.108;2024-02-15T12:10:59;10.35;;;3.72;;
83688;SDS011;74527;43.224;0.108;2024-02-15T12:13:49;6.22;;;4.15;;
83688;SDS011;74527;43.224;0.108;2024-02-15T12:16:34;11.93;;;4.03;;
83688;SDS011;74527;43.224;0.108;2024-02-15T12:19:19;7.15;;;4.05;;
83688;SDS011;74527;43.224;0.108;2024-02-15T12:21:46;15.35;;;5.35;;
83688;SDS011;74527;43.224;0.108;2024-02-15T12:24:13;8.02;;;3.85;;
83688;SDS011;74527;43.224;0.108;2024-02-15T12:26:41;12.63;;;4.60;;
83688;SDS011;74527;43.224;0.108;2024-02-15T12:29:07;6.68;;;4.40;;
83688;SDS011;74527;43.224;0.108;2024-02-15T12:31:35;10.60;;;5.00;;
83688;SDS011;74527;43.224;0.108;2024-02-15T12:34:03;9.52;;;5.25;;
83688;SDS011;74527;43.224;0.108;2024-02-15T12:36:33;8.50;;;4.40;;
83688;SDS011;74527;43.224;0.108;2024-02-15T12:39:05;8.27;;;4.25;;
83688;SDS011;74527;43.224;0.108;2024-02-15T12:41:40;11.85;;;3.85;;
83688;SDS011;74527;43.224;0.108;2024-02-15T12:44:07;10.80;;;4.37;;
83688;SDS011;74527;43.224;0.108;2024-02-15T12:46:35;10.02;;;4.75;;
83688;SDS011;74527;43.224;0.108;2024-02-15T12:49:08;8.82;;;3.85;;
83688;SDS011;74527;43.224;0.108;2024-02-15T12:51:38;7.65;;;4.25;;
83688;SDS011;74527;43.224;0.108;2024-02-15T12:54:10;12.57;;;4.43;;
83688;SDS011;74527;43.224;0.108;2024-02-15T12:56:36;9.10;;;4.30;;
83688;SDS011;74527;43.224;0.108;2024-02-15T12:59:04;7.20;;;4.38;;
83688;SDS011;74527;43.224;0.108;2024-02-15T13:01:31;14.70;;;4.63;;
83688;SDS011;74527;43.224;0.108;2024-02-15T13:03:58;7.93;;;3.95;;
83688;SDS011;74527;43.224;0.108;2024-02-15T13:06:26;10.80;;;4.23;;
83688;SDS011;74527;43.224;0.108;2024-02-15T13:08:53;7.53;;;4.33;;
83688;SDS011;74527;43.224;0.108;2024-02-15T13:11:19;8.65;;;4.40;;
83688;SDS011;74527;43.224;0.108;2024-02-15T13:13:45;8.63;;;4.22;;
83688;SDS011;74527;43.224;0.108;2024-02-15T13:16:11;5.43;;;3.83;;
83688;SDS011;74527;43.224;0.108;2024-02-15T13:18:38;10.48;;;4.53;;
83688;SDS011;74527;43.224;0.108;2024-02-15T13:21:06;8.57;;;4.45;;
83688;SDS011;74527;43.224;0.108;2024-02-15T13:23:32;10.43;;;4.60;;
83688;SDS011;74527;43.224;0.108;2024-02-15T13:25:58;12.48;;;3.80;;
83688;SDS011;74527;43.224;0.108;2024-02-15T13:28:29;10.32;;;4.60;;
83688;SDS011;74527;43.224;0.108;2024-02-15T13:30:57;10.57;;;3.88;;
83688;SDS011;74527;43.224;0.108;2024-02-15T13:33:23;10.60;;;4.32;;
83688;SDS011;74527;43.224;0.108;2024-02-15T13:38:17;9.18;;;4.25;;
83688;SDS011;74527;43.224;0.108;2024-02-15T13:40:49;14.95;;;4.55;;
83688;SDS011;74527;43.224;0.108;2024-02-15T13:43:16;8.13;;;4.28;;
83688;SDS011;74527;43.224;0.108;2024-02-15T13:45:42;9.52;;;4.50;;
83688;SDS011;74527;43.224;0.108;2024-02-15T13:48:09;16.25;;;4.10;;
83688;SDS011;74527;43.224;0.108;2024-02-15T13:50:38;13.43;;;4.53;;
83688;SDS011;74527;43.224;0.108;2024-02-15T13:53:04;15.65;;;4.70;;
83688;SDS011;74527;43.224;0.108;2024-02-15T13:55:31;7.75;;;3.90;;
83688;SDS011;74527;43.224;0.108;2024-02-15T13:57:57;14.25;;;4.15;;
83688;SDS011;74527;43.224;0.108;2024-02-15T14:00:25;7.53;;;4.53;;
83688;SDS011;74527;43.224;0.108;2024-02-15T14:03:02;13.75;;;4.13;;
83688;SDS011;74527;43.224;0.108;2024-02-15T14:05:31;6.88;;;3.85;;
83688;SDS011;74527;43.224;0.108;2024-02-15T14:08:04;10.30;;;4.40;;
83688;SDS011;74527;43.224;0.108;2024-02-15T14:10:31;6.22;;;3.83;;
83688;SDS011;74527;43.224;0.108;2024-02-15T14:12:58;11.13;;;3.95;;
83688;SDS011;74527;43.224;0.108;2024-02-15T14:15:25;6.43;;;3.40;;
83688;SDS011;74527;43.224;0.108;2024-02-15T14:17:51;9.40;;;3.47;;
83688;SDS011;74527;43.224;0.108;2024-02-15T14:20:17;16.15;;;3.60;;
83688;SDS011;74527;43.224;0.108;2024-02-15T14:22:45;9.82;;;3.25;;
83688;SDS011;74527;43.224;0.108;2024-02-15T14:25:14;6.25;;;3.33;;
83688;SDS011;74527;43.224;0.108;2024-02-15T14:27:40;5.90;;;3.15;;
83688;SDS011;74527;43.224;0.108;2024-02-15T14:30:07;8.98;;;3.65;;
83688;SDS011;74527;43.224;0.108;2024-02-15T14:32:52;7.75;;;3.10;;
83688;SDS011;74527;43.224;0.108;2024-02-15T14:35:26;5.50;;;3.10;;
83688;SDS011;74527;43.224;0.108;2024-02-15T14:37:53;16.50;;;3.17;;
83688;SDS011;74527;43.224;0.108;2024-02-15T14:40:23;14.13;;;3.72;;
83688;SDS011;74527;43.224;0.108;2024-02-15T14:42:49;6.38;;;2.75;;
83688;SDS011;74527;43.224;0.108;2024-02-15T14:45:15;8.80;;;3.22;;
83688;SDS011;74527;43.224;0.108;2024-02-15T14:47:41;6.80;;;2.90;;
83688;SDS011;74527;43.224;0.108;2024-02-15T14:50:09;6.43;;;2.78;;
83688;SDS011;74527;43.224;0.108;2024-02-15T14:52:38;8.70;;;3.08;;
83688;SDS011;74527;43.224;0.108;2024-02-15T14:55:05;7.65;;;3.05;;
83688;SDS011;74527;43.224;0.108;2024-02-15T14:57:33;9.25;;;4.13;;
83688;SDS011;74527;43.224;0.108;2024-02-15T14:59:59;11.20;;;3.88;;
83688;SDS011;74527;43.224;0.108;2024-02-15T15:02:25;4.47;;;2.63;;
83688;SDS011;74527;43.224;0.108;2024-02-15T15:04:52;7.60;;;3.00;;
83688;SDS011;74527;43.224;0.108;2024-02-15T15:07:36;4.40;;;2.65;;
83688;SDS011;74527;43.224;0.108;2024-02-15T15:10:21;17.30;;;3.25;;
83688;SDS011;74527;43.224;0.108;2024-02-15T15:13:05;13.30;;;3.58;;
83688;SDS011;74527;43.224;0.108;2024-02-15T15:15:32;7.85;;;3.85;;
83688;SDS011;74527;43.224;0.108;2024-02-15T15:17:58;12.48;;;2.92;;
83688;SDS011;74527;43.224;0.108;2024-02-15T15:20:24;8.02;;;3.65;;